Time;durP1;ratioP1;P1;durP2;ratioP2;P2;SDS_P1;SDS_P2;PMS_P1;PMS_P2;Temp;Humidity;BMP_temperature;BMP_pressure;BME280_temperature;BME280_humidity;BME280_pressure;Samples;Min_cycle;Max_cycle;Signal;HPM_P1;HPM_P2
2022/07/17 00:03:31;;;;;;;8.90;3.90;;;;;;;12.62;100.00;100743.14;681116;1272;139794;-81
2022/07/17 00:18:34;;;;;;;4.80;3.20;;;;;;;12.44;100.00;100756.29;681193;1274;140428;-81
2022/07/17 00:33:37;;;;;;;5.90;3.30;;;;;;;12.38;100.00;100768.96;681240;1274;138854;-81
2022/07/17 00:48:41;;;;;;;7.30;3.70;;;;;;;12.44;100.00;100777.36;680779;1276;139446;-81
2022/07/17 01:03:44;;;;;;;13.60;4.40;;;;;;;12.63;100.00;100788.17;680638;1276;140522;-81
2022/07/17 01:18:47;;;;;;;15.20;5.00;;;;;;;12.80;100.00;100794.55;680770;1276;139426;-81
2022/07/17 01:33:52;;;;;;;8.10;4.40;;;;;;;12.93;100.00;100805.11;681014;1274;139945;-81
2022/07/17 01:48:55;;;;;;;8.50;4.50;;;;;;;13.09;100.00;100800.01;681161;1274;138746;-81
2022/07/17 02:03:58;;;;;;;10.30;4.40;;;;;;;13.08;100.00;100792.52;681237;1274;139108;-81
2022/07/17 02:19:01;;;;;;;7.10;3.80;;;;;;;13.01;100.00;100797.10;681193;1274;139755;-81
2022/07/17 02:34:05;;;;;;;7.00;3.10;;;;;;;12.89;100.00;100805.48;681206;1274;138982;-81
2022/07/17 02:49:08;;;;;;;6.10;3.30;;;;;;;12.87;100.00;100791.84;681128;1273;139339;-81
2022/07/17 03:04:11;;;;;;;6.70;3.70;;;;;;;13.04;100.00;100795.55;681218;1273;139885;-81
2022/07/17 03:19:16;;;;;;;9.00;3.90;;;;;;;13.18;100.00;100823.08;681150;1274;139123;-81
2022/07/17 03:34:20;;;;;;;8.90;3.80;;;;;;;13.20;100.00;100824.30;681117;1274;139077;-81
2022/07/17 03:49:23;;;;;;;10.30;3.20;;;;;;;13.27;100.00;100821.73;681052;1274;139207;-81
2022/07/17 04:04:26;;;;;;;5.20;3.10;;;;;;;13.47;100.00;100814.15;681240;1274;139340;-81
2022/07/17 04:19:29;;;;;;;5.10;1.90;;;;;;;13.66;100.00;100820.83;680957;1274;139582;-80
2022/07/17 04:34:34;;;;;;;5.40;2.40;;;;;;;14.08;100.00;100830.02;681130;1274;139792;-80
2022/07/17 04:49:37;;;;;;;5.20;2.20;;;;;;;14.31;100.00;100842.90;681181;1274;139530;-80
2022/07/17 05:04:40;;;;;;;4.20;1.80;;;;;;;14.73;100.00;100858.90;681145;1274;138734;-80
2022/07/17 05:19:43;;;;;;;5.60;1.40;;;;;;;14.98;100.00;100879.02;681056;1274;139395;-80
2022/07/17 05:34:46;;;;;;;5.20;2.00;;;;;;;15.26;100.00;100888.64;681181;1274;138992;-80
2022/07/17 05:49:50;;;;;;;4.60;1.20;;;;;;;15.74;100.00;100888.27;681029;1272;138939;-81
2022/07/17 06:04:54;;;;;;;3.60;1.30;;;;;;;16.20;100.00;100896.88;680524;1274;138760;-82
2022/07/17 06:19:57;;;;;;;3.20;2.00;;;;;;;16.52;100.00;100919.58;681154;1273;138906;-81
2022/07/17 06:35:00;;;;;;;4.60;1.40;;;;;;;16.89;100.00;100936.92;680921;1274;139536;-80
2022/07/17 06:50:04;;;;;;;4.60;1.20;;;;;;;17.50;100.00;100964.37;680761;1274;365169;-80
2022/07/17 07:05:08;;;;;;;7.50;1.60;;;;;;;18.03;100.00;100975.82;680936;1274;140615;-81
2022/07/17 07:20:11;;;;;;;2.10;1.00;;;;;;;19.02;100.00;100975.34;681003;1274;139881;-80
2022/07/17 07:35:15;;;;;;;2.70;1.00;;;;;;;19.91;98.35;100975.88;681090;1274;138947;-80
2022/07/17 07:50:21;;;;;;;0.80;0.70;;;;;;;20.49;89.22;100991.94;681247;1274;139202;-80
2022/07/17 08:05:25;;;;;;;1.50;0.60;;;;;;;21.98;79.53;101011.66;681045;1273;138916;-82
2022/07/17 08:20:29;;;;;;;1.00;0.80;;;;;;;22.20;77.42;101028.33;681156;1274;138811;-80
2022/07/17 08:35:33;;;;;;;2.40;1.20;;;;;;;22.82;71.50;101035.57;680749;1274;138810;-81
2022/07/17 08:50:36;;;;;;;0.60;0.50;;;;;;;22.90;65.13;101045.13;681268;1273;138849;-79
2022/07/17 09:05:40;;;;;;;2.40;0.70;;;;;;;24.59;61.08;101039.31;681041;1272;139502;-81
2022/07/17 09:20:51;;;;;;;1.60;1.10;;;;;;;24.84;58.06;101045.75;681193;1272;138845;-81
2022/07/17 09:35:57;;;;;;;1.10;0.90;;;;;;;24.82;56.65;101053.53;681090;1272;138695;-81
2022/07/17 09:51:02;;;;;;;1.80;1.10;;;;;;;24.71;55.29;101052.78;681306;1272;138455;-81
2022/07/17 10:06:06;;;;;;;11.50;6.00;;;;;;;26.08;55.14;101043.52;680376;1275;139566;-81
2022/07/17 10:21:18;;;;;;;1.10;0.80;;;;;;;25.34;52.31;101037.41;680638;1275;138388;-80
2022/07/17 10:36:37;;;;;;;3.60;1.30;;;;;;;25.88;52.56;101039.34;680628;1275;138183;-79
2022/07/17 10:51:40;;;;;;;1.50;0.70;;;;;;;26.12;51.89;101038.49;681089;1273;138309;-80
2022/07/17 11:06:43;;;;;;;2.10;0.60;;;;;;;26.59;50.66;101041.76;680706;1275;139132;-82
2022/07/17 11:21:49;;;;;;;0.70;0.70;;;;;;;26.56;49.76;101043.09;681019;1275;138517;-80
2022/07/17 11:37:02;;;;;;;1.00;0.80;;;;;;;26.60;48.72;101045.73;680946;1275;138752;-79
2022/07/17 11:52:20;;;;;;;1.40;0.60;;;;;;;25.94;47.24;101039.17;680837;1275;138295;-79
2022/07/17 12:07:46;;;;;;;1.90;0.80;;;;;;;26.06;48.20;101043.48;680801;1276;138971;-80
2022/07/17 12:22:51;;;;;;;2.50;0.80;;;;;;;24.61;50.39;101056.13;680904;1274;139039;-80
2022/07/17 12:38:02;;;;;;;2.10;1.00;;;;;;;24.37;52.38;101060.73;681090;1275;138212;-81
2022/07/17 12:53:06;;;;;;;1.80;0.90;;;;;;;26.11;52.23;101060.77;681057;1274;138425;-81
2022/07/17 13:08:09;;;;;;;2.60;0.90;;;;;;;25.11;51.71;101062.20;681085;1275;137992;-81
2022/07/17 13:23:13;;;;;;;4.60;0.80;;;;;;;24.41;53.51;101066.86;680969;1275;138861;-82
2022/07/17 13:38:16;;;;;;;1.30;0.70;;;;;;;24.05;54.66;101057.40;681001;1274;138398;-81
2022/07/17 13:53:22;;;;;;;1.90;0.60;;;;;;;24.34;54.04;101048.89;681032;1276;139093;-90
2022/07/17 14:08:25;;;;;;;4.70;3.50;;;;;;;24.60;55.20;101044.91;681059;1275;140334;-81
2022/07/17 14:23:30;;;;;;;6.20;2.80;;;;;;;25.45;54.35;101041.00;680943;1274;138247;-79
2022/07/17 14:38:34;;;;;;;4.60;1.40;;;;;;;25.35;52.05;101046.42;681150;1274;139772;-80
2022/07/17 14:53:38;;;;;;;18.80;6.10;;;;;;;24.78;53.05;101048.86;680808;1276;139642;-80
2022/07/17 15:08:41;;;;;;;18.80;8.90;;;;;;;23.99;54.74;101045.16;681092;1274;138261;-80
2022/07/17 15:23:45;;;;;;;6.80;4.70;;;;;;;23.98;56.01;101034.55;680935;1274;139053;-80
2022/07/17 15:38:54;;;;;;;3.30;1.60;;;;;;;23.63;58.54;101037.59;681110;1274;139794;-80
2022/07/17 15:53:58;;;;;;;4.00;1.70;;;;;;;23.39;60.50;101038.98;680969;1275;140253;-81
2022/07/17 16:09:02;;;;;;;6.90;3.30;;;;;;;23.08;62.00;101042.49;680831;1275;138608;-82
2022/07/17 16:24:06;;;;;;;5.00;1.90;;;;;;;23.30;62.10;101040.63;680872;1274;138474;-82
2022/07/17 16:39:10;;;;;;;2.10;1.30;;;;;;;23.93;60.60;101032.17;681080;1275;138399;-82
2022/07/17 16:54:14;;;;;;;8.00;5.00;;;;;;;23.00;63.04;101023.36;680887;1276;138144;-82
2022/07/17 17:09:17;;;;;;;10.40;4.90;;;;;;;23.04;63.30;101030.82;680868;1275;138190;-82
2022/07/17 17:24:21;;;;;;;4.50;2.60;;;;;;;23.77;63.54;101032.18;680987;1274;138359;-83
2022/07/17 17:39:25;;;;;;;8.80;4.70;;;;;;;23.75;62.40;101034.27;680986;1275;138726;-83
2022/07/17 17:54:29;;;;;;;4.20;1.60;;;;;;;23.22;62.70;101040.81;680743;1276;139248;-82
2022/07/17 18:09:32;;;;;;;3.70;1.70;;;;;;;22.63;64.09;101054.42;680719;1276;139389;-83
2022/07/17 18:24:35;;;;;;;5.70;2.10;;;;;;;22.05;66.85;101061.63;680936;1274;139311;-83
2022/07/17 18:39:39;;;;;;;8.10;2.80;;;;;;;21.58;69.43;101068.02;680965;1274;138228;-82
2022/07/17 18:54:43;;;;;;;10.40;6.20;;;;;;;21.20;71.72;101082.23;680668;1274;428416;-82
2022/07/17 19:09:48;;;;;;;10.70;5.70;;;;;;;20.97;73.93;101102.29;680931;1276;139039;-82
2022/07/17 19:24:53;;;;;;;8.30;5.10;;;;;;;20.48;77.31;101125.88;680854;1275;138537;-83
2022/07/17 19:39:57;;;;;;;10.20;4.40;;;;;;;20.09;79.19;101139.15;681153;1277;23085;-82
2022/07/17 19:55:01;;;;;;;8.80;4.70;;;;;;;19.77;80.83;101150.35;680361;1274;140215;-83
2022/07/17 20:10:05;;;;;;;12.30;4.40;;;;;;;19.09;82.17;101158.27;680919;1274;138978;-81
2022/07/17 20:25:09;;;;;;;17.10;8.40;;;;;;;18.34;85.37;101155.58;680881;1275;139173;-82
2022/07/17 20:40:16;;;;;;;26.10;12.90;;;;;;;18.08;87.46;101163.55;680921;1274;139850;-81
2022/07/17 20:55:20;;;;;;;26.80;12.70;;;;;;;17.66;90.23;101168.05;681157;1274;140596;-81
2022/07/17 21:10:24;;;;;;;17.10;8.40;;;;;;;17.31;92.65;101174.39;680767;1274;140319;-81
2022/07/17 21:25:27;;;;;;;18.00;7.80;;;;;;;16.91;96.52;101186.88;680809;1276;140372;-81
2022/07/17 21:40:31;;;;;;;13.40;5.20;;;;;;;16.71;97.11;101193.90;680693;1275;140063;-82
2022/07/17 21:55:34;;;;;;;17.10;8.00;;;;;;;16.52;96.15;101192.42;680764;1276;138869;-82
2022/07/17 22:10:37;;;;;;;7.80;4.40;;;;;;;16.10;96.55;101188.15;680935;1275;139140;-82
2022/07/17 22:25:41;;;;;;;10.60;6.70;;;;;;;15.64;97.97;101192.03;681111;1275;138833;-82
2022/07/17 22:40:44;;;;;;;6.70;3.50;;;;;;;15.43;98.28;101192.39;680977;1275;139574;-82
2022/07/17 22:55:47;;;;;;;5.30;3.10;;;;;;;15.16;99.17;101185.27;681011;1276;139007;-82
2022/07/17 23:10:51;;;;;;;8.40;4.30;;;;;;;15.03;99.95;101183.97;680667;1276;139917;-82
2022/07/17 23:25:54;;;;;;;11.10;5.20;;;;;;;14.93;100.00;101179.23;681107;1275;140388;-82
2022/07/17 23:40:57;;;;;;;5.60;3.70;;;;;;;14.78;100.00;101178.55;680982;1275;140266;-82
2022/07/17 23:56:00;;;;;;;5.80;2.90;;;;;;;14.47;100.00;101180.05;681114;1275;138807;-82
